Time;durP1;ratioP1;P1;durP2;ratioP2;P2;SDS_P1;SDS_P2;PMS_P1;PMS_P2;Temp;Humidity;BMP_temperature;BMP_pressure;BME280_temperature;BME280_humidity;BME280_pressure;Samples;Min_cycle;Max_cycle;Signal;HPM_P1;HPM_P2
2023/08/03 00:00:17;;;;;;;36.60;2.13;;;;;;;24.78;60.74;97674.69;7311446;19;130560;-40
2023/08/03 00:02:43;;;;;;;47.27;2.97;;;;;;;24.78;60.32;97672.03;7311784;19;129032;-44
2023/08/03 00:05:08;;;;;;;51.27;3.10;;;;;;;24.78;60.44;97682.56;7307676;19;130548;-40
2023/08/03 00:07:34;;;;;;;33.10;1.93;;;;;;;24.79;60.67;97681.56;7310435;19;130852;-39
2023/08/03 00:10:01;;;;;;;78.00;4.93;;;;;;;24.72;60.79;97670.25;7308889;19;129172;-40
2023/08/03 00:12:26;;;;;;;;;;;;;;;24.86;61.06;97677.09;7294382;19;129589;-40
2023/08/03 00:14:52;;;;;;;75.03;4.40;;;;;;;24.78;60.44;97690.44;7293608;19;129873;-40
2023/08/03 00:17:18;;;;;;;45.30;2.58;;;;;;;24.68;61.00;97687.44;7304663;19;129093;-40
2023/08/03 00:19:43;;;;;;;52.00;3.37;;;;;;;24.77;60.44;97709.88;7310516;19;129419;-39
2023/08/03 00:22:09;;;;;;;27.00;1.87;;;;;;;24.75;60.34;97707.44;7310086;19;129042;-40
2023/08/03 00:24:35;;;;;;;54.87;3.10;;;;;;;24.77;60.36;97720.38;7307041;19;129043;-40
2023/08/03 00:27:00;;;;;;;24.93;1.63;;;;;;;24.76;60.37;97713.53;7304549;19;129653;-40
2023/08/03 00:29:26;;;;;;;45.37;2.70;;;;;;;24.76;61.39;97726.66;7309406;19;129562;-39
2023/08/03 00:31:51;;;;;;;23.73;1.70;;;;;;;24.75;60.43;97727.66;7311343;19;130635;-39
2023/08/03 00:34:16;;;;;;;52.30;3.23;;;;;;;24.77;60.61;97720.38;7314827;19;129129;-41
2023/08/03 00:36:41;;;;;;;47.80;3.07;;;;;;;24.77;60.26;97720.38;7314341;19;130231;-40
2023/08/03 00:39:07;;;;;;;37.37;2.27;;;;;;;24.76;60.39;97722.19;7310383;19;129799;-39
2023/08/03 00:41:32;;;;;;;46.03;2.87;;;;;;;24.67;60.63;97715.53;7315071;19;129736;-39
2023/08/03 00:43:58;;;;;;;94.00;6.17;;;;;;;24.77;60.49;97733.53;7315860;19;129207;-39
2023/08/03 00:46:23;;;;;;;49.63;3.27;;;;;;;24.68;60.47;97718.97;7313541;19;131845;-40
2023/08/03 00:48:49;;;;;;;30.63;2.00;;;;;;;24.77;60.32;97736.16;7317213;19;129630;-40
2023/08/03 00:51:14;;;;;;;79.27;5.00;;;;;;;24.69;60.41;97723.22;7315609;19;129814;-40
2023/08/03 00:53:39;;;;;;;46.90;2.83;;;;;;;24.76;60.82;97735.34;7317487;19;129558;-39
2023/08/03 00:56:05;;;;;;;13.07;1.00;;;;;;;24.75;60.38;97739.00;7314053;19;130023;-39
2023/08/03 00:58:30;;;;;;;34.63;2.10;;;;;;;24.75;60.36;97738.16;7316332;19;129649;-39
2023/08/03 01:00:56;;;;;;;42.20;2.37;;;;;;;24.76;61.07;97734.53;7317296;19;128795;-39
2023/08/03 01:03:21;;;;;;;89.23;5.73;;;;;;;24.76;61.10;97739.81;7310461;19;130609;-39
2023/08/03 01:05:47;;;;;;;86.30;5.73;;;;;;;24.76;60.59;97734.53;7296865;19;130437;-40
2023/08/03 01:08:12;;;;;;;33.90;2.20;;;;;;;24.75;61.03;97733.72;7310143;19;131042;-40
2023/08/03 01:10:37;;;;;;;42.90;2.67;;;;;;;24.72;60.55;97738.59;7317581;19;129093;-39
2023/08/03 01:13:03;;;;;;;27.63;1.80;;;;;;;24.76;60.83;97734.53;7313835;19;130233;-40
2023/08/03 01:15:28;;;;;;;42.60;2.80;;;;;;;24.75;60.75;97727.66;7313644;19;129606;-39
2023/08/03 01:17:54;;;;;;;64.53;4.17;;;;;;;24.76;60.56;97726.66;7309172;19;130596;-41
2023/08/03 01:20:21;;;;;;;119.87;7.37;;;;;;;24.75;60.56;97730.28;7299625;19;131104;-38
2023/08/03 01:22:47;;;;;;;73.95;4.70;;;;;;;24.76;60.84;97726.66;7303765;19;130384;-42
2023/08/03 01:25:12;;;;;;;74.93;5.07;;;;;;;24.75;60.55;97723.22;7298223;19;129225;-43
2023/08/03 01:27:38;;;;;;;39.83;2.37;;;;;;;24.75;60.47;97730.28;7313064;19;131918;-42
2023/08/03 01:30:04;;;;;;;38.47;2.33;;;;;;;24.74;60.61;97720.78;7314320;19;129066;-39
2023/08/03 01:32:30;;;;;;;30.08;1.83;;;;;;;24.75;60.99;97711.88;7314853;19;130521;-38
2023/08/03 01:34:56;;;;;;;41.53;2.63;;;;;;;24.75;61.17;97711.88;7312786;19;130091;-38
2023/08/03 01:37:21;;;;;;;34.77;2.13;;;;;;;24.69;60.78;97703.03;7313964;19;129582;-38
2023/08/03 01:39:46;;;;;;;45.57;2.73;;;;;;;24.75;60.88;97717.97;7314458;19;129261;-40
2023/08/03 01:42:13;;;;;;;34.80;2.17;;;;;;;24.74;61.17;97720.78;7315323;19;129343;-38
2023/08/03 01:44:38;;;;;;;38.40;2.30;;;;;;;24.73;61.21;97704.22;7311274;19;129714;-39
2023/08/03 01:47:04;;;;;;;39.37;2.30;;;;;;;24.73;61.14;97708.66;7313027;19;129310;-38
2023/08/03 01:49:31;;;;;;;55.23;3.43;;;;;;;24.75;61.04;97709.25;7314344;19;129469;-39
2023/08/03 01:51:57;;;;;;;28.63;1.80;;;;;;;24.67;60.42;97693.69;7313788;19;131579;-40
2023/08/03 01:54:22;;;;;;;26.53;1.60;;;;;;;24.74;61.30;97710.28;7311738;19;130290;-38
2023/08/03 01:56:47;;;;;;;37.63;2.27;;;;;;;24.74;61.17;97700.59;7311303;19;129367;-39
2023/08/03 01:59:13;;;;;;;41.70;2.57;;;;;;;24.74;61.10;97705.03;7312855;19;128928;-42
2023/08/03 02:01:38;;;;;;;22.97;1.67;;;;;;;24.74;61.06;97707.66;7309092;19;131199;-39
2023/08/03 02:04:04;;;;;;;87.20;5.77;;;;;;;24.72;60.86;97699.16;7313047;19;130493;-39
2023/08/03 02:06:29;;;;;;;54.00;3.13;;;;;;;24.73;60.84;97701.59;7311126;19;129106;-40
2023/08/03 02:08:55;;;;;;;29.27;1.80;;;;;;;24.75;61.19;97709.25;7315876;19;129545;-40
2023/08/03 02:11:20;;;;;;;51.17;3.13;;;;;;;24.75;61.03;97706.63;7312831;19;130674;-38
2023/08/03 02:13:46;;;;;;;31.60;2.20;;;;;;;24.73;60.84;97706.03;7313542;19;129539;-42
2023/08/03 02:16:11;;;;;;;53.53;3.17;;;;;;;24.75;60.96;97706.63;7310653;19;129238;-40
2023/08/03 02:18:38;;;;;;;48.30;3.07;;;;;;;24.74;60.64;97710.28;7313751;19;128864;-37
2023/08/03 02:21:04;;;;;;;31.05;1.95;;;;;;;24.74;60.80;97705.03;7313493;19;128988;-40
2023/08/03 02:23:29;;;;;;;35.90;2.17;;;;;;;24.74;61.10;97712.91;7315009;19;129010;-38
2023/08/03 02:25:55;;;;;;;48.67;2.90;;;;;;;24.74;61.08;97718.97;7311033;19;130290;-38
2023/08/03 02:28:20;;;;;;;32.30;2.10;;;;;;;24.74;60.45;97715.53;7315589;19;129735;-41
2023/08/03 02:30:45;;;;;;;33.13;2.03;;;;;;;24.74;60.50;97716.34;7313037;19;129687;-39
2023/08/03 02:33:11;;;;;;;50.37;3.13;;;;;;;24.75;60.24;97719.78;7313456;19;129063;-38
2023/08/03 02:35:39;;;;;;;65.80;4.20;;;;;;;24.75;60.75;97727.66;7309564;19;129353;-42
2023/08/03 02:38:07;;;;;;;45.53;2.90;;;;;;;24.74;61.15;97731.31;7308099;19;129768;-38
2023/08/03 02:40:33;;;;;;;34.53;2.20;;;;;;;24.72;60.52;97733.31;7313658;19;129366;-40
2023/08/03 02:42:58;;;;;;;45.00;2.60;;;;;;;24.73;61.08;97729.69;7312604;19;129718;-41
2023/08/03 02:45:23;;;;;;;29.50;1.80;;;;;;;24.73;60.52;97735.75;7311578;19;129351;-41
2023/08/03 02:47:49;;;;;;;31.80;2.23;;;;;;;24.73;61.24;97733.13;7311664;19;129593;-40
2023/08/03 02:50:15;;;;;;;59.33;3.67;;;;;;;24.73;60.83;97727.03;7312375;19;129568;-38
2023/08/03 02:52:40;;;;;;;54.00;3.30;;;;;;;24.73;61.22;97724.41;7312209;19;129439;-38
2023/08/03 02:55:06;;;;;;;40.10;2.27;;;;;;;24.73;60.61;97729.69;7308720;19;129162;-40
2023/08/03 02:57:31;;;;;;;34.77;2.00;;;;;;;24.73;60.42;97724.41;7313068;19;129800;-41
2023/08/03 02:59:56;;;;;;;24.47;1.53;;;;;;;24.74;61.09;97731.31;7312897;19;128829;-40
2023/08/03 03:02:22;;;;;;;57.07;3.43;;;;;;;24.73;60.57;97730.50;7311555;19;129149;-39
2023/08/03 03:04:49;;;;;;;85.23;5.57;;;;;;;24.73;61.15;97729.69;7295776;19;131366;-44
2023/08/03 03:07:15;;;;;;;35.67;2.15;;;;;;;24.70;61.04;97724.84;7301159;19;130643;-39
2023/08/03 03:09:40;;;;;;;55.33;3.37;;;;;;;24.72;60.66;97738.59;7308767;19;128928;-38
2023/08/03 03:12:06;;;;;;;54.43;3.13;;;;;;;24.72;61.17;97733.31;7311163;19;129848;-43
2023/08/03 03:14:31;;;;;;;28.10;1.73;;;;;;;24.73;61.32;97734.94;7311535;19;130432;-38
2023/08/03 03:16:56;;;;;;;63.50;3.77;;;;;;;24.71;60.62;97726.47;7306851;19;129590;-39
2023/08/03 03:19:22;;;;;;;35.73;2.03;;;;;;;24.72;60.88;97730.69;7310415;19;129655;-42
2023/08/03 03:21:47;;;;;;;32.63;2.07;;;;;;;24.73;61.24;97740.19;7312239;19;130331;-38
2023/08/03 03:24:12;;;;;;;40.20;2.57;;;;;;;24.72;60.79;97741.22;7310804;19;129390;-40
2023/08/03 03:26:38;;;;;;;45.13;2.87;;;;;;;24.70;60.93;97737.97;7310544;19;129912;-40
2023/08/03 03:29:03;;;;;;;34.07;2.07;;;;;;;24.72;61.20;97738.59;7312707;19;129147;-40
2023/08/03 03:31:28;;;;;;;80.43;4.87;;;;;;;24.73;61.26;97745.44;7310961;19;129527;-39
2023/08/03 03:33:54;;;;;;;64.80;3.83;;;;;;;24.69;60.90;97731.13;7310146;19;129139;-39
2023/08/03 03:36:19;;;;;;;40.63;2.57;;;;;;;24.70;60.59;97730.91;7310420;19;129193;-38
2023/08/03 03:38:44;;;;;;;50.53;3.10;;;;;;;24.72;60.62;97741.22;7309815;19;129787;-42
2023/08/03 03:41:10;;;;;;;64.03;4.30;;;;;;;24.72;60.96;97743.84;7310810;19;129516;-40
2023/08/03 03:43:35;;;;;;;40.87;2.40;;;;;;;24.71;60.63;97736.97;7311105;19;129650;-42
2023/08/03 03:46:02;;;;;;;56.53;3.37;;;;;;;24.62;60.79;97740.78;7307776;19;131502;-40
2023/08/03 03:48:27;;;;;;;;;;;;;;;24.80;60.83;97746.25;7312462;19;128868;-40
2023/08/03 03:50:52;;;;;;;38.42;2.28;;;;;;;24.73;60.49;97741.00;7310772;19;129463;-38
2023/08/03 03:53:18;;;;;;;40.47;2.40;;;;;;;24.73;60.96;97750.69;7310981;19;129122;-40
2023/08/03 03:55:43;;;;;;;17.00;1.27;;;;;;;24.72;60.96;97749.09;7305497;19;130800;-40
2023/08/03 03:58:08;;;;;;;69.33;4.10;;;;;;;24.63;60.75;97734.50;7306530;19;130641;-39
2023/08/03 04:00:39;;;;;;;45.17;2.73;;;;;;;24.71;61.32;97742.22;7311642;19;129559;-39
2023/08/03 04:03:05;;;;;;;26.25;1.55;;;;;;;24.70;60.75;97741.41;7308699;19;129185;-39
2023/08/03 04:05:30;;;;;;;42.20;2.77;;;;;;;24.72;61.27;97738.59;7307226;19;130231;-38
2023/08/03 04:07:55;;;;;;;38.17;2.17;;;;;;;24.71;60.84;97731.72;7309809;19;129390;-40
2023/08/03 04:10:21;;;;;;;30.27;1.87;;;;;;;24.69;60.96;97731.94;7310605;19;129588;-37
2023/08/03 04:12:46;;;;;;;92.70;6.03;;;;;;;24.71;60.64;97731.72;7304930;19;132516;-41
2023/08/03 04:15:11;;;;;;;57.43;3.23;;;;;;;24.71;61.04;97731.72;7307371;19;129509;-41
2023/08/03 04:17:38;;;;;;;54.37;3.37;;;;;;;24.69;60.58;97736.38;7304215;19;129252;-40
2023/08/03 04:20:07;;;;;;;55.97;3.33;;;;;;;24.69;60.92;97739.81;7307963;19;130445;-39
2023/08/03 04:22:32;;;;;;;64.40;4.17;;;;;;;24.68;60.79;97732.94;7303004;19;129626;-41
2023/08/03 04:24:57;;;;;;;38.03;2.30;;;;;;;24.72;60.58;97728.06;7307610;19;129473;-38
2023/08/03 04:27:22;;;;;;;41.17;2.40;;;;;;;24.71;61.11;97736.97;7309174;19;132106;-39
2023/08/03 04:29:48;;;;;;;49.70;3.10;;;;;;;24.69;61.18;97739.00;7308993;19;129438;-39
2023/08/03 04:32:13;;;;;;;42.23;2.57;;;;;;;24.71;61.04;97755.38;7309581;19;129760;-38
2023/08/03 04:34:38;;;;;;;76.53;4.77;;;;;;;24.69;61.13;97749.50;7304989;19;129255;-39
2023/08/03 04:37:04;;;;;;;36.37;2.17;;;;;;;24.71;61.00;97756.16;7309839;19;128885;-39
2023/08/03 04:39:29;;;;;;;45.77;2.77;;;;;;;24.69;60.74;97760.03;7307562;19;129516;-38
2023/08/03 04:41:55;;;;;;;39.17;2.67;;;;;;;24.71;60.69;97763.25;7308291;19;129623;-40
2023/08/03 04:44:20;;;;;;;54.87;3.37;;;;;;;24.71;60.69;97768.50;7307543;19;129681;-39
2023/08/03 04:46:45;;;;;;;55.30;3.47;;;;;;;24.71;60.67;97776.41;7306862;19;129298;-43
2023/08/03 04:49:13;;;;;;;36.77;2.27;;;;;;;24.72;61.07;97775.38;7302212;19;132289;-42
2023/08/03 04:51:38;;;;;;;31.63;2.15;;;;;;;24.71;60.67;97784.28;7308700;19;129323;-37
2023/08/03 04:54:03;;;;;;;90.57;5.57;;;;;;;24.70;61.28;97772.13;7305396;19;130018;-40
2023/08/03 04:56:29;;;;;;;33.60;2.03;;;;;;;24.70;61.02;97777.41;7307448;19;129327;-43
2023/08/03 04:58:54;;;;;;;33.53;2.07;;;;;;;24.71;61.40;97768.50;7308026;19;128972;-38
2023/08/03 05:01:19;;;;;;;68.17;4.30;;;;;;;24.71;60.96;97768.50;7307192;19;129321;-40
2023/08/03 05:03:45;;;;;;;103.93;6.63;;;;;;;24.71;60.64;97763.25;7303927;19;129853;-42
2023/08/03 05:06:10;;;;;;;40.10;2.37;;;;;;;24.71;61.22;97765.88;7307419;19;129145;-39
2023/08/03 05:08:36;;;;;;;64.13;4.33;;;;;;;24.70;60.87;97764.25;7306051;19;129100;-38
2023/08/03 05:11:01;;;;;;;84.60;5.13;;;;;;;24.69;60.78;97757.38;7285955;19;130655;-39
2023/08/03 05:13:26;;;;;;;119.00;7.40;;;;;;;24.71;61.03;97763.25;7286505;19;130132;-39
2023/08/03 05:15:52;;;;;;;35.97;2.43;;;;;;;24.69;60.75;97770.53;7302312;19;129155;-39
2023/08/03 05:18:17;;;;;;;37.97;2.50;;;;;;;24.70;61.20;97766.88;7308284;19;129346;-38
2023/08/03 05:20:43;;;;;;;61.13;3.73;;;;;;;24.70;61.08;97766.88;7310801;19;129255;-38
2023/08/03 05:23:09;;;;;;;123.13;7.43;;;;;;;24.70;60.58;97774.75;7313665;19;129000;-42
2023/08/03 05:25:34;;;;;;;26.73;1.85;;;;;;;24.69;60.95;97770.53;7309641;19;129676;-42
2023/08/03 05:28:00;;;;;;;8.33;0.73;;;;;;;24.71;60.92;97784.28;7314536;19;129089;-41
2023/08/03 05:30:26;;;;;;;45.90;2.67;;;;;;;24.71;61.13;97773.78;7314610;19;129344;-41
2023/08/03 05:32:51;;;;;;;47.93;2.90;;;;;;;24.71;60.71;97781.66;7315265;19;129599;-40
2023/08/03 05:35:16;;;;;;;31.40;1.97;;;;;;;24.71;60.66;97782.44;7305572;19;129834;-41
2023/08/03 05:37:42;;;;;;;31.23;2.03;;;;;;;24.71;60.46;97776.41;7315020;19;129930;-38
2023/08/03 05:40:08;;;;;;;43.33;2.67;;;;;;;24.70;60.70;97775.59;7314608;19;129498;-42
2023/08/03 05:42:39;;;;;;;36.00;2.07;;;;;;;24.70;60.92;97780.84;7316007;19;129125;-40
2023/08/03 05:45:14;;;;;;;44.60;2.85;;;;;;;24.70;61.02;97782.66;7308739;19;130051;-41
2023/08/03 05:47:39;;;;;;;52.10;3.35;;;;;;;24.69;60.86;97767.91;7313165;19;128988;-40
2023/08/03 05:50:13;;;;;;;30.03;1.87;;;;;;;24.71;61.29;97781.66;7314076;19;129224;-41
2023/08/03 05:52:39;;;;;;;139.93;8.00;;;;;;;24.71;60.85;97771.94;7306724;19;129522;-41
2023/08/03 05:55:05;;;;;;;59.13;3.67;;;;;;;24.70;60.60;97780.03;7301840;19;130214;-40
2023/08/03 05:57:30;;;;;;;48.43;3.23;;;;;;;24.70;61.50;97785.28;7313658;19;129830;-42
2023/08/03 05:59:55;;;;;;;72.50;4.57;;;;;;;24.65;60.69;97775.34;7310291;19;129182;-40
2023/08/03 06:02:47;;;;;;;51.97;3.30;;;;;;;24.78;60.62;97790.31;7315265;19;129106;-41
2023/08/03 06:05:37;;;;;;;47.25;3.08;;;;;;;24.69;61.02;97770.53;7310375;19;129057;-42
2023/08/03 06:08:18;;;;;;;47.47;2.88;;;;;;;24.76;60.69;97795.78;7315910;19;129154;-43
2023/08/03 06:10:46;;;;;;;79.72;4.90;;;;;;;24.75;59.39;97802.06;7308345;19;129327;-40
2023/08/03 06:13:13;;;;;;;35.63;2.45;;;;;;;24.74;60.31;97794.38;7315572;19;128975;-41
2023/08/03 06:15:41;;;;;;;66.68;4.13;;;;;;;24.65;58.91;97780.59;7309018;19;129796;-41
2023/08/03 06:18:10;;;;;;;50.20;3.85;;;;;;;24.73;59.48;97798.81;7310365;19;132559;-39
2023/08/03 06:20:39;;;;;;;53.95;3.67;;;;;;;24.71;59.31;97805.31;7315778;19;130178;-40
2023/08/03 06:23:05;;;;;;;56.97;4.07;;;;;;;24.66;59.29;97784.84;7312896;19;130109;-42
2023/08/03 06:25:30;;;;;;;72.87;5.03;;;;;;;24.73;59.25;97808.50;7307808;19;130209;-39
2023/08/03 06:27:58;;;;;;;24.43;2.30;;;;;;;24.73;59.19;97803.25;7314184;19;129683;-42
2023/08/03 06:30:23;;;;;;;68.28;4.40;;;;;;;24.69;57.85;97791.56;7311298;19;129474;-41
2023/08/03 06:32:49;;;;;;;63.50;4.20;;;;;;;24.70;58.32;97804.50;7312245;19;128717;-40
2023/08/03 06:35:45;;;;;;;72.03;4.63;;;;;;;24.66;59.67;97799.81;7309073;19;130978;-40
2023/08/03 06:38:21;;;;;;;40.08;2.85;;;;;;;24.65;58.57;97803.44;7310822;19;129237;-40
2023/08/03 06:40:48;;;;;;;13.60;1.67;;;;;;;24.66;57.35;97813.75;7313479;19;129694;-42
2023/08/03 06:43:13;;;;;;;;;;;;;;;24.73;58.09;97819.03;7310250;19;129213;-42
2023/08/03 06:45:41;;;;;;;51.10;3.45;;;;;;;24.65;56.77;97816.56;7308390;19;129273;-40
2023/08/03 06:48:07;;;;;;;34.83;2.70;;;;;;;24.65;57.74;97827.09;7312268;19;130351;-40
2023/08/03 06:50:33;;;;;;;;;;;;;;;24.67;58.48;97806.69;7315583;19;129576;-43
2023/08/03 06:52:59;;;;;;;14.02;1.58;;;;;;;24.76;57.49;97834.41;7311317;19;129439;-42
2023/08/03 06:55:25;;;;;;;51.08;3.25;;;;;;;24.74;57.01;97836.44;7309286;19;128965;-42
2023/08/03 06:57:52;;;;;;;40.10;3.00;;;;;;;24.64;56.30;97841.25;7312352;19;129027;-42
2023/08/03 07:00:17;;;;;;;67.38;4.57;;;;;;;24.57;56.86;97841.25;7308968;19;130767;-43
2023/08/03 07:02:44;;;;;;;48.37;3.30;;;;;;;24.58;56.17;97840.22;7310327;19;129126;-41
2023/08/03 07:05:10;;;;;;;53.45;3.65;;;;;;;24.64;54.79;97857.00;7310496;19;129881;-41
2023/08/03 07:07:35;;;;;;;44.07;2.93;;;;;;;24.63;56.86;97855.38;7310078;19;130397;-41
2023/08/03 07:10:01;;;;;;;40.57;3.03;;;;;;;24.61;55.98;97852.97;7312723;19;131253;-41
2023/08/03 07:12:26;;;;;;;37.53;2.83;;;;;;;24.58;56.17;97857.84;7310370;19;129943;-41
2023/08/03 07:14:52;;;;;;;47.53;3.03;;;;;;;24.68;56.28;97858.25;7308904;19;129788;-40
2023/08/03 07:17:17;;;;;;;41.57;2.77;;;;;;;24.65;56.35;97862.06;7312317;19;129636;-40
2023/08/03 07:19:42;;;;;;;43.63;3.00;;;;;;;24.69;55.44;97876.47;7307728;19;129415;-40
2023/08/03 07:22:11;;;;;;;36.27;2.57;;;;;;;24.62;54.85;97864.28;7311579;19;129601;-40
2023/08/03 07:24:36;;;;;;;41.13;2.97;;;;;;;24.57;55.82;97878.03;7307999;19;130235;-39
2023/08/03 07:27:02;;;;;;;26.57;2.00;;;;;;;24.62;55.41;97869.53;7310464;19;129027;-39
2023/08/03 07:29:28;;;;;;;49.45;3.20;;;;;;;24.70;55.41;97890.41;7309985;19;129922;-40
2023/08/03 07:31:54;;;;;;;65.57;4.07;;;;;;;24.67;53.85;97885.53;7308346;19;129627;-39
2023/08/03 07:34:19;;;;;;;30.37;1.93;;;;;;;24.56;54.35;97894.00;7311402;19;130433;-40
2023/08/03 07:36:45;;;;;;;51.10;3.60;;;;;;;24.60;54.59;97882.06;7309063;19;129538;-41
2023/08/03 07:39:11;;;;;;;29.67;2.15;;;;;;;24.42;53.09;97870.34;7309354;19;129649;-39
2023/08/03 07:41:37;;;;;;;128.97;8.37;;;;;;;24.50;54.40;97887.72;7296617;19;131596;-39
2023/08/03 07:44:02;;;;;;;66.13;4.40;;;;;;;24.53;54.38;97891.78;7310792;19;129250;-40
2023/08/03 07:46:29;;;;;;;29.63;1.97;;;;;;;24.53;52.78;97894.41;7311062;19;129173;-40
2023/08/03 07:48:56;;;;;;;36.28;2.67;;;;;;;24.56;55.38;97896.63;7310175;19;129778;-40
2023/08/03 07:51:21;;;;;;;54.63;3.28;;;;;;;24.57;54.06;97898.25;7311881;19;129136;-40
2023/08/03 07:53:46;;;;;;;39.40;2.93;;;;;;;24.62;55.14;97894.00;7297681;19;131213;-40
2023/08/03 07:56:20;;;;;;;44.70;2.83;;;;;;;24.66;56.31;97907.56;7308944;19;129112;-41
2023/08/03 07:58:47;;;;;;;40.33;3.20;;;;;;;24.65;54.30;97905.94;7308563;19;129626;-39
2023/08/03 08:01:12;;;;;;;;;;;;;;;24.71;55.90;97894.66;7311813;19;129047;-39
2023/08/03 08:03:38;;;;;;;47.20;3.22;;;;;;;24.67;55.17;97904.72;7308932;19;129400;-40
2023/08/03 08:06:06;;;;;;;37.90;2.80;;;;;;;24.64;54.58;97893.81;7309529;19;129370;-39
2023/08/03 08:08:31;;;;;;;48.30;3.53;;;;;;;24.68;54.35;97900.28;7307955;19;129197;-40
2023/08/03 08:10:57;;;;;;;53.10;3.57;;;;;;;24.64;54.15;97899.88;7310883;19;129890;-39
2023/08/03 08:13:22;;;;;;;57.03;3.80;;;;;;;24.67;54.69;97903.91;7308524;19;129278;-39
2023/08/03 08:15:48;;;;;;;41.90;3.50;;;;;;;24.67;54.49;97922.31;7307792;19;129708;-39
2023/08/03 08:18:13;;;;;;;35.53;2.77;;;;;;;24.67;54.96;97924.94;7309773;19;129603;-40
2023/08/03 08:20:39;;;;;;;62.40;3.93;;;;;;;24.63;54.07;97929.78;7309376;19;129432;-40
2023/08/03 08:23:04;;;;;;;49.23;3.30;;;;;;;24.63;54.03;97918.44;7309520;19;129202;-40
2023/08/03 08:25:34;;;;;;;40.57;2.70;;;;;;;24.58;55.08;97936.66;7307885;19;129827;-39
2023/08/03 08:28:00;;;;;;;47.65;3.45;;;;;;;24.38;54.72;97916.38;7308386;19;129825;-40
2023/08/03 08:30:25;;;;;;;38.03;2.50;;;;;;;24.57;54.72;97924.50;7309259;19;129147;-39
2023/08/03 08:32:52;;;;;;;51.93;3.60;;;;;;;24.59;52.62;97935.63;7308264;19;130913;-40
2023/08/03 08:35:17;;;;;;;33.53;2.35;;;;;;;24.67;54.65;97940.72;7308314;19;130372;-39
2023/08/03 08:37:43;;;;;;;81.37;5.43;;;;;;;24.55;53.78;97937.03;7306086;19;129585;-39
2023/08/03 08:40:12;;;;;;;46.20;2.90;;;;;;;24.58;54.17;97947.16;7307632;19;129015;-40
2023/08/03 08:42:38;;;;;;;103.40;7.00;;;;;;;24.59;53.70;97948.78;7303150;19;129031;-39
2023/08/03 08:45:07;;;;;;;54.20;3.67;;;;;;;24.52;52.33;97958.44;7306636;19;129936;-39
2023/08/03 08:47:32;;;;;;;47.60;2.97;;;;;;;24.46;52.07;97950.34;7309499;19;131155;-39
2023/08/03 08:49:58;;;;;;;48.90;3.17;;;;;;;24.53;54.03;97973.22;7310080;19;129102;-39
2023/08/03 08:52:25;;;;;;;45.60;2.97;;;;;;;24.55;53.93;97958.06;7310680;19;129841;-40
2023/08/03 08:55:09;;;;;;;39.97;2.63;;;;;;;24.49;53.44;97955.22;7314502;19;129220;-40
2023/08/03 08:57:34;;;;;;;35.20;2.67;;;;;;;24.54;52.22;97951.19;7316753;19;129255;-39
2023/08/03 09:00:02;;;;;;;31.77;2.07;;;;;;;24.45;51.06;97964.50;7315365;19;129548;-39
2023/08/03 09:02:27;;;;;;;48.50;3.15;;;;;;;24.46;53.77;97965.31;7315760;19;130060;-39
2023/08/03 09:04:52;;;;;;;44.00;2.87;;;;;;;24.55;54.37;97958.06;7312909;19;129609;-40
2023/08/03 09:07:18;;;;;;;96.43;6.20;;;;;;;24.58;54.13;97976.06;7299594;19;130614;-39
2023/08/03 09:09:43;;;;;;;84.03;5.80;;;;;;;24.54;53.50;97966.97;7299664;19;130344;-39
2023/08/03 09:12:09;;;;;;;106.53;6.97;;;;;;;24.51;52.85;97962.09;7298158;19;132256;-39
2023/08/03 09:14:51;;;;;;;74.57;4.83;;;;;;;24.54;55.34;97951.19;7298149;19;131044;-39
2023/08/03 09:17:22;;;;;;;36.72;2.55;;;;;;;24.54;54.24;97959.06;7313228;19;129996;-38
2023/08/03 09:19:48;;;;;;;52.90;3.58;;;;;;;24.54;52.90;97967.78;7313571;19;129152;-40
2023/08/03 09:22:14;;;;;;;49.17;3.30;;;;;;;24.57;53.62;97967.38;7315705;19;130529;-39
2023/08/03 09:24:39;;;;;;;53.55;3.50;;;;;;;24.54;53.46;97951.19;7314003;19;129137;-40
2023/08/03 09:27:05;;;;;;;33.53;2.47;;;;;;;24.51;53.54;97946.34;7314236;19;129401;-39
2023/08/03 09:29:31;;;;;;;51.93;3.33;;;;;;;24.64;54.71;97972.66;7314067;19;129537;-39
2023/08/03 09:32:05;;;;;;;67.60;4.22;;;;;;;24.67;54.87;97967.00;7312451;19;130190;-39
2023/08/03 09:34:48;;;;;;;29.83;2.15;;;;;;;24.64;55.11;97967.38;7309206;19;130811;-40
2023/08/03 09:37:14;;;;;;;76.40;4.78;;;;;;;24.55;53.16;97981.69;7314818;19;129554;-39
2023/08/03 09:39:52;;;;;;;87.43;5.57;;;;;;;24.51;54.85;97962.88;7310605;19;129601;-39
2023/08/03 09:42:19;;;;;;;50.15;3.42;;;;;;;24.60;53.91;97993.25;7311977;19;130658;-40
2023/08/03 09:44:46;;;;;;;150.32;9.45;;;;;;;24.44;54.07;97962.88;7306500;19;129562;-40
2023/08/03 09:47:12;;;;;;;51.42;3.28;;;;;;;24.60;54.37;97989.81;7314527;19;129301;-40
2023/08/03 09:49:38;;;;;;;76.40;4.95;;;;;;;24.55;53.18;97990.41;7311787;19;129886;-39
2023/08/03 09:52:06;;;;;;;54.90;3.47;;;;;;;24.56;54.35;97985.97;7311852;19;129446;-40
2023/08/03 09:54:39;;;;;;;31.95;2.25;;;;;;;24.63;54.55;97992.03;7312383;19;131025;-40
2023/08/03 09:57:09;;;;;;;53.13;3.30;;;;;;;24.45;54.43;97985.53;7314244;19;129595;-40
2023/08/03 09:59:36;;;;;;;57.50;3.40;;;;;;;24.52;53.62;98009.19;7312858;19;129968;-40
2023/08/03 10:02:07;;;;;;;66.93;4.30;;;;;;;24.40;53.38;98003.69;7310792;19;129591;-40
2023/08/03 10:04:38;;;;;;;71.28;4.72;;;;;;;24.48;53.92;98004.53;7309355;19;129120;-40
2023/08/03 10:07:08;;;;;;;47.60;2.80;;;;;;;24.48;53.12;98009.78;7308488;19;129664;-40
2023/08/03 10:09:39;;;;;;;127.85;7.85;;;;;;;24.56;54.70;98001.72;7311532;19;129707;-40
2023/08/03 10:12:09;;;;;;;58.08;3.22;;;;;;;24.44;54.13;97989.13;7312580;19;129907;-40
2023/08/03 10:14:39;;;;;;;53.22;3.25;;;;;;;24.52;53.13;98011.00;7311677;19;129987;-40
2023/08/03 10:17:07;;;;;;;49.83;3.00;;;;;;;24.56;54.26;98013.03;7311000;19;129424;-42
2023/08/03 10:19:33;;;;;;;67.38;3.90;;;;;;;24.56;53.45;98022.75;7312151;19;129362;-40
2023/08/03 10:21:59;;;;;;;93.33;5.57;;;;;;;24.51;53.41;98023.31;7309642;19;129506;-39
2023/08/03 10:24:24;;;;;;;31.30;2.10;;;;;;;24.58;53.37;98031.25;7311262;19;129353;-40
2023/08/03 10:26:54;;;;;;;31.10;2.03;;;;;;;24.62;53.45;98030.66;7309648;19;129105;-40
2023/08/03 10:29:57;;;;;;;46.33;2.85;;;;;;;24.60;54.40;98039.72;7314480;19;129599;-40
2023/08/03 10:32:25;;;;;;;63.53;3.72;;;;;;;24.63;53.82;98039.34;7307607;19;130406;-39
2023/08/03 10:34:52;;;;;;;52.45;3.13;;;;;;;24.58;52.59;98031.25;7307841;19;129387;-40
2023/08/03 10:37:18;;;;;;;42.60;2.60;;;;;;;24.52;53.67;98032.84;7311911;19;129437;-40
2023/08/03 10:40:00;;;;;;;45.47;2.77;;;;;;;24.58;53.91;98053.06;7312058;19;129530;-40
2023/08/03 10:42:32;;;;;;;32.40;2.28;;;;;;;24.52;52.28;98047.78;7311266;19;129777;-40
2023/08/03 10:45:22;;;;;;;64.85;3.75;;;;;;;24.59;54.44;98052.06;7309595;19;129784;-38
2023/08/03 10:47:48;;;;;;;50.45;3.72;;;;;;;24.60;54.06;98060.75;7310679;19;129849;-41
2023/08/03 10:50:14;;;;;;;38.53;2.53;;;;;;;24.57;53.15;98058.53;7311095;19;129361;-41
2023/08/03 10:52:39;;;;;;;74.63;4.40;;;;;;;24.53;53.54;98070.44;7313317;19;129833;-42
2023/08/03 10:55:26;;;;;;;30.83;2.03;;;;;;;24.53;54.07;98073.06;7308782;19;130027;-39
2023/08/03 10:57:53;;;;;;;20.85;1.38;;;;;;;24.53;53.15;98062.56;7310698;19;129688;-40
2023/08/03 11:00:18;;;;;;;39.55;2.40;;;;;;;24.53;53.26;98062.56;7310635;19;129715;-40
2023/08/03 11:02:43;;;;;;;50.47;3.10;;;;;;;24.56;53.11;98070.84;7311031;19;130197;-39
2023/08/03 11:05:12;;;;;;;89.40;5.40;;;;;;;24.49;52.80;98054.25;7303073;19;130282;-39
2023/08/03 11:07:43;;;;;;;49.85;3.22;;;;;;;24.61;53.43;98072.91;7314038;19;129374;-41
2023/08/03 11:10:10;;;;;;;25.42;1.75;;;;;;;24.55;53.30;98063.16;7311589;19;129326;-39
2023/08/03 11:12:37;;;;;;;53.30;3.67;;;;;;;24.56;53.83;98065.59;7312640;19;129536;-39
2023/08/03 11:15:02;;;;;;;46.60;2.72;;;;;;;24.57;54.26;98076.91;7306788;19;130775;-40
2023/08/03 11:17:30;;;;;;;33.67;2.17;;;;;;;24.59;53.44;98080.16;7308961;19;131266;-39